createdAt,value
2022-10-22T00:00:48.543Z,13.40
2022-10-22T00:04:09.571Z,13.30
2022-10-22T00:07:11.382Z,13.30
2022-10-22T00:19:01.987Z,13.30
2022-10-22T00:22:22.252Z,13.30
2022-10-22T00:24:50.746Z,13.20
2022-10-22T00:27:19.720Z,13.30
2022-10-22T00:34:45.674Z,13.30
2022-10-22T00:46:43.473Z,13.30
2022-10-22T01:01:05.512Z,13.30
2022-10-22T01:30:03.610Z,13.40
2022-10-22T01:33:30.079Z,13.40
2022-10-22T01:36:16.960Z,13.40
2022-10-22T01:39:16.000Z,13.40
2022-10-22T01:42:55.364Z,13.50
2022-10-22T01:45:42.845Z,13.50
2022-10-22T02:02:50.909Z,13.40
2022-10-22T02:22:58.052Z,13.30
2022-10-22T02:27:03.323Z,13.30
2022-10-22T02:31:00.643Z,13.40
2022-10-22T02:34:19.098Z,13.40
2022-10-22T03:01:27.517Z,13.50
2022-10-22T03:08:06.246Z,13.40
2022-10-22T03:11:12.378Z,13.40
2022-10-22T03:17:57.325Z,13.50
2022-10-22T03:20:39.917Z,13.50
2022-10-22T03:23:12.294Z,13.50
2022-10-22T03:35:23.322Z,13.50
2022-10-22T03:37:52.754Z,13.50
2022-10-22T03:44:04.778Z,13.60
2022-10-22T03:46:33.366Z,13.60
2022-10-22T03:49:01.829Z,13.70
2022-10-22T03:51:45.340Z,13.70
2022-10-22T03:54:13.646Z,13.70
2022-10-22T03:56:43.018Z,13.70
2022-10-22T03:59:21.057Z,13.70
2022-10-22T04:01:51.185Z,13.70
2022-10-22T04:04:19.534Z,13.80
2022-10-22T04:06:53.821Z,13.80
2022-10-22T04:09:23.052Z,13.80
2022-10-22T04:11:51.348Z,13.80
2022-10-22T04:14:22.322Z,13.80
2022-10-22T04:16:50.735Z,13.80
2022-10-22T04:19:19.943Z,13.80
2022-10-22T04:21:52.473Z,13.80
2022-10-22T04:24:23.037Z,13.90
2022-10-22T04:26:52.120Z,13.90
2022-10-22T04:29:27.087Z,13.90
2022-10-22T05:10:17.512Z,13.90
2022-10-22T05:12:46.801Z,13.90
2022-10-22T05:15:15.015Z,13.90
2022-10-22T05:18:03.244Z,13.90
2022-10-22T05:37:53.931Z,13.80
2022-10-22T05:44:36.159Z,13.80
2022-10-22T05:47:35.782Z,13.80
2022-10-22T05:50:18.813Z,13.70
2022-10-22T05:52:49.642Z,13.70
2022-10-22T05:55:19.471Z,13.70
2022-10-22T05:58:00.898Z,13.70
2022-10-22T06:00:42.836Z,13.70
2022-10-22T06:03:14.671Z,13.70
2022-10-22T06:19:42.239Z,13.70
2022-10-22T06:22:17.390Z,13.60
2022-10-22T06:31:43.236Z,13.60
2022-10-22T06:41:36.395Z,13.50
2022-10-22T06:44:33.340Z,13.40
2022-10-22T06:47:12.366Z,13.40
2022-10-22T06:49:42.662Z,13.50
2022-10-22T06:52:10.862Z,13.40
2022-10-22T06:54:39.315Z,13.40
2022-10-22T06:57:20.871Z,13.40
2022-10-22T06:59:49.062Z,13.40
2022-10-22T07:02:35.098Z,13.40
2022-10-22T07:11:12.088Z,13.30
2022-10-22T07:13:54.372Z,13.30
2022-10-22T07:16:32.640Z,13.30
2022-10-22T07:19:35.430Z,13.30
2022-10-22T07:22:35.600Z,13.30
2022-10-22T07:25:50.551Z,13.30
2022-10-22T07:28:51.183Z,13.30
2022-10-22T07:31:23.207Z,13.40
2022-10-22T07:33:53.635Z,13.40
2022-10-22T07:36:22.078Z,13.40
2022-10-22T07:38:55.186Z,13.40
2022-10-22T07:41:25.036Z,13.40
2022-10-22T07:43:54.748Z,13.50
2022-10-22T07:46:26.573Z,13.50
2022-10-22T07:48:54.950Z,13.50
2022-10-22T07:51:23.963Z,13.50
2022-10-22T07:53:52.322Z,13.50
2022-10-22T07:56:21.746Z,13.50
2022-10-22T07:58:51.229Z,13.50
2022-10-22T08:01:20.851Z,13.50
2022-10-22T08:03:49.116Z,13.60
2022-10-22T08:06:17.764Z,13.60
2022-10-22T08:08:46.922Z,13.60
2022-10-22T08:11:15.419Z,13.50
2022-10-22T08:13:45.563Z,13.40
2022-10-22T08:16:14.568Z,13.50
2022-10-22T08:18:44.104Z,13.60
2022-10-22T08:21:12.375Z,13.70
2022-10-22T08:23:40.593Z,13.70
2022-10-22T08:26:08.769Z,13.80
2022-10-22T08:28:37.248Z,13.90
2022-10-22T08:31:07.419Z,13.90
2022-10-22T08:33:36.058Z,14.00
2022-10-22T08:36:09.464Z,14.10
2022-10-22T08:39:39.438Z,14.40
2022-10-22T08:42:56.138Z,14.70
2022-10-22T08:45:55.174Z,15.00
2022-10-22T08:48:55.215Z,15.20
2022-10-22T08:51:31.705Z,15.30
2022-10-22T08:54:18.091Z,15.40
2022-10-22T08:56:57.392Z,15.40
2022-10-22T08:59:31.054Z,15.40
2022-10-22T09:01:59.391Z,15.40
2022-10-22T09:04:32.382Z,15.40
2022-10-22T09:07:02.009Z,15.30
2022-10-22T09:09:35.239Z,15.20
2022-10-22T09:12:04.883Z,15.20
2022-10-22T09:14:33.018Z,15.20
2022-10-22T09:17:14.434Z,15.10
2022-10-22T09:19:54.293Z,15.10
2022-10-22T09:25:17.472Z,15.20
2022-10-22T09:27:45.575Z,15.20
2022-10-22T09:30:17.957Z,15.30
2022-10-22T09:32:56.098Z,15.30
2022-10-22T09:35:28.882Z,15.40
2022-10-22T09:37:58.612Z,15.30
2022-10-22T09:40:26.823Z,15.30
2022-10-22T09:42:55.463Z,15.40
2022-10-22T09:45:26.759Z,15.40
2022-10-22T09:48:13.495Z,15.60
2022-10-22T09:50:45.368Z,15.70
2022-10-22T09:53:22.968Z,15.80
2022-10-22T09:55:53.402Z,15.90
2022-10-22T09:58:22.270Z,16.00
2022-10-22T10:01:00.165Z,16.10
2022-10-22T10:03:34.081Z,16.30
2022-10-22T10:06:07.302Z,16.80
2022-10-22T10:08:36.871Z,17.30
2022-10-22T10:11:12.255Z,17.60
2022-10-22T10:13:48.693Z,17.90
2022-10-22T10:16:36.557Z,18.10
2022-10-22T10:19:18.594Z,18.10
2022-10-22T10:22:00.057Z,18.10
2022-10-22T10:24:39.078Z,17.90
2022-10-22T10:27:14.154Z,17.80
2022-10-22T10:29:57.111Z,17.80
2022-10-22T10:32:42.141Z,18.00
2022-10-22T10:35:22.208Z,17.90
2022-10-22T10:38:16.638Z,17.90
2022-10-22T10:40:54.247Z,17.90
2022-10-22T10:43:30.589Z,18.00
2022-10-22T10:46:07.895Z,18.40
2022-10-22T10:48:50.972Z,18.90
2022-10-22T10:51:38.508Z,19.30
2022-10-22T10:54:19.423Z,19.80
2022-10-22T10:56:53.516Z,20.20
2022-10-22T10:59:34.922Z,20.50
2022-10-22T11:02:27.784Z,20.80
2022-10-22T11:05:27.688Z,21.00
2022-10-22T11:07:59.066Z,21.20
2022-10-22T11:10:32.037Z,21.40
2022-10-22T11:13:12.729Z,21.40
2022-10-22T11:15:52.429Z,21.50
2022-10-22T11:18:29.350Z,21.60
2022-10-22T11:21:27.274Z,21.70
2022-10-22T11:24:29.540Z,21.80
2022-10-22T11:30:22.406Z,22.20
2022-10-22T11:33:02.820Z,22.00
2022-10-22T11:35:37.320Z,22.10
2022-10-22T11:38:13.690Z,22.00
2022-10-22T11:41:15.957Z,22.00
2022-10-22T11:44:25.952Z,21.90
2022-10-22T11:47:09.298Z,21.90
2022-10-22T11:49:45.404Z,21.80
2022-10-22T11:52:29.301Z,21.60
2022-10-22T11:55:00.396Z,21.50
2022-10-22T11:57:38.211Z,21.60
2022-10-22T12:00:15.361Z,21.50
2022-10-22T12:03:03.713Z,21.30
2022-10-22T12:05:36.630Z,21.10
2022-10-22T12:08:28.847Z,21.00
2022-10-22T12:11:05.855Z,21.10
2022-10-22T12:13:51.967Z,21.30
2022-10-22T12:16:32.325Z,21.40
2022-10-22T12:19:18.443Z,21.50
2022-10-22T12:21:50.868Z,21.40
2022-10-22T12:24:21.551Z,21.30
2022-10-22T12:26:52.651Z,21.20
2022-10-22T12:29:25.598Z,21.20
2022-10-22T12:31:54.934Z,21.20
2022-10-22T12:34:26.356Z,21.20
2022-10-22T12:36:56.140Z,21.30
2022-10-22T12:39:36.890Z,21.30
2022-10-22T12:42:09.596Z,21.20
2022-10-22T12:44:40.688Z,21.20
2022-10-22T12:47:19.223Z,21.20
2022-10-22T12:49:54.925Z,21.20
2022-10-22T12:52:25.857Z,21.10
2022-10-22T12:55:28.504Z,21.20
2022-10-22T13:01:57.472Z,21.30
2022-10-22T13:04:44.407Z,21.20
2022-10-22T13:15:51.374Z,20.90
2022-10-22T13:18:41.596Z,20.50
2022-10-22T13:22:10.838Z,20.20
2022-10-22T13:28:29.781Z,19.80
2022-10-22T13:31:17.845Z,19.70
2022-10-22T13:34:34.426Z,19.70
2022-10-22T13:37:32.073Z,19.70
2022-10-22T13:44:52.886Z,19.30
2022-10-22T13:52:32.296Z,18.70
2022-10-22T13:55:13.325Z,18.30
2022-10-22T13:58:38.209Z,18.10
2022-10-22T14:01:17.816Z,17.80
2022-10-22T14:03:48.898Z,17.80
2022-10-22T14:06:19.031Z,17.80
2022-10-22T14:08:56.370Z,17.70
2022-10-22T14:11:31.270Z,17.60
2022-10-22T14:14:04.699Z,17.50
2022-10-22T14:16:35.604Z,17.30
2022-10-22T14:19:17.316Z,17.20
2022-10-22T14:21:54.734Z,17.20
2022-10-22T14:24:34.236Z,17.10
2022-10-22T14:27:14.193Z,17.00
2022-10-22T14:29:54.037Z,17.00
2022-10-22T14:32:34.953Z,17.10
2022-10-22T14:35:07.445Z,17.00
2022-10-22T14:37:40.060Z,17.00
2022-10-22T14:40:14.881Z,17.00
2022-10-22T14:42:45.338Z,16.90
2022-10-22T14:45:17.791Z,16.90
2022-10-22T14:47:45.971Z,16.90
2022-10-22T14:50:19.182Z,17.00
2022-10-22T14:52:47.862Z,16.90
2022-10-22T14:55:31.731Z,16.80
2022-10-22T14:58:00.019Z,16.70
2022-10-22T15:00:29.534Z,16.70
2022-10-22T15:03:03.425Z,16.60
2022-10-22T15:05:33.956Z,16.60
2022-10-22T15:08:06.288Z,16.50
2022-10-22T15:10:38.217Z,16.40
2022-10-22T15:13:06.802Z,16.40
2022-10-22T15:15:39.436Z,16.30
2022-10-22T15:18:15.596Z,16.20
2022-10-22T15:20:46.163Z,16.20
2022-10-22T15:23:14.334Z,16.00
2022-10-22T15:25:45.157Z,16.00
2022-10-22T15:28:13.186Z,16.00
2022-10-22T15:30:41.295Z,15.90
2022-10-22T15:33:11.519Z,15.70
2022-10-22T15:35:41.593Z,15.60
2022-10-22T15:38:11.139Z,15.60
2022-10-22T15:40:39.261Z,15.50
2022-10-22T15:43:07.299Z,15.50
2022-10-22T15:45:35.384Z,15.40
2022-10-22T15:48:03.511Z,15.30
2022-10-22T15:50:35.041Z,15.30
2022-10-22T15:53:03.137Z,15.20
2022-10-22T15:55:32.687Z,15.10
2022-10-22T15:58:03.378Z,15.10
2022-10-22T16:00:33.643Z,15.00
2022-10-22T16:03:01.699Z,15.00
2022-10-22T16:05:30.009Z,14.90
2022-10-22T16:08:17.894Z,14.80
2022-10-22T16:10:48.529Z,14.80
2022-10-22T16:13:17.027Z,14.70
2022-10-22T16:18:38.836Z,14.70
2022-10-22T16:21:07.209Z,14.60
2022-10-22T16:23:37.257Z,14.50
2022-10-22T16:26:08.181Z,14.40
2022-10-22T16:28:37.536Z,14.40
2022-10-22T16:31:10.255Z,14.40
2022-10-22T16:33:42.994Z,14.30
2022-10-22T16:36:17.834Z,14.20
2022-10-22T16:38:46.305Z,14.20
2022-10-22T16:41:19.739Z,14.20
2022-10-22T16:43:51.787Z,14.10
2022-10-22T16:46:54.652Z,14.00
2022-10-22T16:49:29.948Z,14.00
2022-10-22T16:52:22.677Z,13.90
2022-10-22T16:55:10.849Z,13.90
2022-10-22T16:59:56.040Z,13.80
2022-10-22T17:02:19.707Z,13.70
2022-10-22T17:04:59.928Z,13.70
2022-10-22T17:07:44.699Z,13.70
2022-10-22T17:10:31.244Z,13.60
2022-10-22T17:13:13.529Z,13.60
2022-10-22T17:16:25.887Z,13.60
2022-10-22T17:20:11.178Z,13.60
2022-10-22T17:23:11.174Z,13.60
2022-10-22T17:33:25.001Z,13.60
2022-10-22T17:36:38.195Z,13.50
2022-10-22T17:39:20.042Z,13.50
2022-10-22T17:42:09.940Z,13.40
2022-10-22T17:44:46.675Z,13.40
2022-10-22T17:47:16.220Z,13.40
2022-10-22T17:50:15.582Z,13.30
2022-10-22T17:53:27.327Z,13.30
2022-10-22T17:56:11.630Z,13.30
2022-10-22T17:59:21.191Z,13.30
2022-10-22T18:02:08.830Z,13.30
2022-10-22T18:04:57.604Z,13.30
2022-10-22T18:07:34.385Z,13.30
2022-10-22T18:10:29.268Z,13.20
2022-10-22T18:13:18.232Z,13.20
2022-10-22T18:16:06.024Z,13.20
2022-10-22T18:18:41.342Z,13.20
2022-10-22T18:21:18.327Z,13.20
2022-10-22T18:23:49.459Z,13.20
2022-10-22T18:27:05.160Z,13.20
2022-10-22T18:30:00.534Z,13.20
2022-10-22T18:38:19.692Z,13.20
2022-10-22T18:41:03.162Z,13.20
2022-10-22T18:43:49.073Z,13.20
2022-10-22T18:47:09.041Z,13.30
2022-10-22T18:51:01.131Z,13.30
2022-10-22T18:53:27.709Z,13.30
2022-10-22T18:57:00.479Z,13.30
2022-10-22T18:59:59.255Z,13.40
2022-10-22T19:03:09.811Z,13.40
2022-10-22T19:13:13.795Z,13.50
2022-10-22T19:17:14.175Z,13.50
2022-10-22T19:20:45.342Z,13.50
2022-10-22T19:24:26.229Z,13.60
2022-10-22T19:31:43.467Z,13.70
2022-10-22T19:42:16.706Z,13.60
2022-10-22T19:46:01.658Z,13.60
2022-10-22T20:02:35.469Z,13.50
2022-10-22T20:06:26.818Z,13.50
2022-10-22T20:32:11.745Z,13.10
2022-10-22T20:35:38.408Z,13.10
2022-10-22T21:02:17.057Z,12.80
2022-10-22T21:24:29.639Z,12.60
2022-10-22T21:32:17.094Z,12.60
2022-10-22T21:59:04.502Z,12.50
2022-10-22T22:19:31.520Z,12.40
2022-10-22T22:26:55.264Z,12.40
2022-10-22T22:34:49.289Z,12.40
2022-10-22T23:03:00.220Z,12.40
2022-10-22T23:06:32.664Z,12.40
2022-10-22T23:12:45.734Z,12.60
2022-10-22T23:15:25.327Z,12.60
2022-10-22T23:17:55.765Z,12.70
2022-10-22T23:20:33.196Z,12.70
2022-10-22T23:23:07.065Z,12.80
2022-10-22T23:25:49.865Z,12.80
2022-10-22T23:28:40.922Z,12.90
2022-10-22T23:31:20.436Z,12.90
2022-10-22T23:33:49.679Z,13.00
2022-10-22T23:36:27.413Z,13.00
2022-10-22T23:40:04.725Z,13.00
2022-10-22T23:55:28.822Z,12.90
2022-10-22T23:58:35.883Z,12.90
